Time;durP1;ratioP1;P1;durP2;ratioP2;P2;SDS_P1;SDS_P2;PMS_P1;PMS_P2;Temp;Humidity;BMP_temperature;BMP_pressure;BME280_temperature;BME280_humidity;BME280_pressure;Samples;Min_cycle;Max_cycle;Signal;HPM_P1;HPM_P2
2023/06/05 00:00:10;;;;;;;4.77;2.10;;;11.20;99.90;;;;;;5012432;28;20570;-51
2023/06/05 00:02:37;;;;;;;3.60;1.73;;;11.20;99.90;;;;;;5012632;28;20555;-50
2023/06/05 00:05:08;;;;;;;2.23;1.50;;;11.20;99.90;;;;;;5016017;28;20586;-50
2023/06/05 00:07:34;;;;;;;2.20;1.90;;;11.20;99.90;;;;;;5015761;28;20539;-51
2023/06/05 00:10:01;;;;;;;3.77;1.83;;;11.10;99.90;;;;;;5015137;28;20566;-50
2023/06/05 00:12:28;;;;;;;4.67;1.60;;;11.10;99.90;;;;;;5014508;28;21016;-50
2023/06/05 00:14:55;;;;;;;3.80;1.63;;;11.10;99.90;;;;;;5013429;28;20570;-50
2023/06/05 00:17:22;;;;;;;1.90;1.80;;;11.10;99.90;;;;;;5008647;28;21027;-50
2023/06/05 00:19:49;;;;;;;2.07;1.80;;;11.00;99.90;;;;;;5013735;28;20491;-51
2023/06/05 00:22:15;;;;;;;1.57;1.47;;;11.00;99.90;;;;;;5024907;28;20558;-50
2023/06/05 00:24:42;;;;;;;1.60;1.50;;;11.00;99.90;;;;;;5020885;28;20570;-52
2023/06/05 00:27:08;;;;;;;2.03;1.93;;;11.00;99.90;;;;;;5014027;28;20535;-50
2023/06/05 00:29:36;;;;;;;9.87;2.40;;;11.00;99.90;;;;;;5026199;28;20502;-51
2023/06/05 00:32:02;;;;;;;3.17;2.10;;;10.90;99.90;;;;;;5012804;28;20535;-51
2023/06/05 00:34:29;;;;;;;1.63;1.57;;;11.00;99.90;;;;;;5013114;28;20514;-51
2023/06/05 00:36:57;;;;;;;1.90;1.80;;;10.80;99.90;;;;;;5014233;28;20547;-51
2023/06/05 00:39:24;;;;;;;1.70;1.60;;;10.80;99.90;;;;;;5013786;28;20515;-51
2023/06/05 00:41:50;;;;;;;1.67;1.63;;;10.80;99.90;;;;;;5013462;28;20475;-50
2023/06/05 00:44:19;;;;;;;5.23;1.53;;;10.70;99.90;;;;;;5012642;28;20586;-50
2023/06/05 00:46:50;;;;;;;2.70;1.47;;;10.60;99.90;;;;;;5012968;28;20550;-50
2023/06/05 00:49:16;;;;;;;3.33;1.77;;;10.60;99.90;;;;;;5006248;28;20484;-51
2023/06/05 00:51:46;;;;;;;2.20;2.00;;;10.60;99.90;;;;;;5013451;28;20476;-51
2023/06/05 00:54:13;;;;;;;3.97;1.60;;;10.50;99.90;;;;;;5013082;28;20590;-50
2023/06/05 00:56:41;;;;;;;1.83;1.67;;;10.50;99.90;;;;;;5021742;28;20466;-52
2023/06/05 00:59:08;;;;;;;2.70;1.90;;;10.60;99.90;;;;;;5010762;28;20602;-51
2023/06/05 01:01:36;;;;;;;1.47;1.37;;;10.50;99.90;;;;;;5040946;23;20503;-51
2023/06/05 01:04:04;;;;;;;2.13;1.80;;;10.60;99.90;;;;;;5019035;28;20479;-51
2023/06/05 01:06:33;;;;;;;1.67;1.57;;;10.60;99.90;;;;;;5029696;28;20633;-52
2023/06/05 01:09:00;;;;;;;9.50;1.43;;;10.50;99.90;;;;;;5030709;28;20459;-52
2023/06/05 01:11:33;;;;;;;1.87;1.77;;;10.50;99.90;;;;;;5011643;28;20511;-51
2023/06/05 01:14:07;;;;;;;2.33;2.13;;;10.50;99.90;;;;;;5009786;28;20448;-52
2023/06/05 01:16:34;;;;;;;2.70;1.70;;;10.40;99.90;;;;;;5009774;28;20908;-51
2023/06/05 01:19:02;;;;;;;2.97;2.57;;;10.30;72.90;;;;;;5006496;28;21025;-51
2023/06/05 01:21:30;;;;;;;1.50;1.40;;;10.40;75.10;;;;;;5008211;28;21009;-51
2023/06/05 01:23:58;;;;;;;5.03;1.83;;;10.40;71.80;;;;;;5009975;28;20483;-53
2023/06/05 01:26:30;;;;;;;1.80;1.70;;;10.30;60.80;;;;;;5010613;28;20551;-52
2023/06/05 01:28:58;;;;;;;3.63;1.80;;;10.40;31.00;;;;;;5008588;28;20496;-52
2023/06/05 01:31:26;;;;;;;3.40;1.83;;;10.30;99.90;;;;;;5011802;28;20558;-51
2023/06/05 01:34:01;;;;;;;1.70;1.60;;;10.40;31.20;;;;;;5011107;28;20558;-51
2023/06/05 01:36:28;;;;;;;2.00;1.90;;;10.40;30.20;;;;;;5012155;28;20455;-52
2023/06/05 01:38:58;;;;;;;2.90;2.03;;;10.40;23.00;;;;;;5012124;28;21001;-55
2023/06/05 01:41:27;;;;;;;1.60;1.50;;;10.30;28.30;;;;;;5001703;28;20555;-51
2023/06/05 01:43:54;;;;;;;1.97;1.87;;;10.30;29.10;;;;;;5008331;28;21028;-57
2023/06/05 01:46:23;;;;;;;1.50;1.40;;;10.20;28.70;;;;;;5009427;28;20548;-52
2023/06/05 01:48:51;;;;;;;6.23;1.50;;;10.10;22.00;;;;;;5009744;28;20550;-51
2023/06/05 01:51:17;;;;;;;2.00;1.90;;;10.10;21.60;;;;;;5011339;28;20468;-51
2023/06/05 01:53:48;;;;;;;9.30;1.77;;;10.10;99.90;;;;;;5009978;28;20546;-53
2023/06/05 01:56:19;;;;;;;2.27;2.00;;;10.10;99.90;;;;;;5012150;28;20462;-52
2023/06/05 01:58:46;;;;;;;2.57;1.90;;;9.90;99.90;;;;;;5009525;28;20460;-51
2023/06/05 02:01:15;;;;;;;6.30;1.80;;;9.80;99.90;;;;;;5008854;28;20518;-52
2023/06/05 02:03:47;;;;;;;3.83;1.70;;;9.80;99.90;;;;;;5009593;28;20482;-51
2023/06/05 02:06:14;;;;;;;1.87;1.77;;;9.80;99.90;;;;;;5011296;28;20499;-51
2023/06/05 02:08:40;;;;;;;2.47;2.27;;;9.80;99.90;;;;;;5011763;28;20534;-52
2023/06/05 02:11:10;;;;;;;2.00;1.80;;;9.80;99.90;;;;;;5012057;28;21017;-52
2023/06/05 02:13:38;;;;;;;2.00;1.70;;;9.70;99.90;;;;;;5011075;28;20981;-52
2023/06/05 02:16:05;;;;;;;1.60;1.50;;;9.60;99.90;;;;;;5009745;28;20460;-51
2023/06/05 02:18:32;;;;;;;2.17;2.00;;;9.70;99.90;;;;;;5005131;28;20554;-51
2023/06/05 02:20:58;;;;;;;2.00;1.90;;;9.80;99.90;;;;;;5010967;28;20483;-52
2023/06/05 02:23:25;;;;;;;1.97;1.87;;;9.60;99.90;;;;;;5011688;28;20472;-51
2023/06/05 02:25:52;;;;;;;3.70;1.70;;;9.60;99.90;;;;;;5011799;28;21049;-51
2023/06/05 02:28:19;;;;;;;2.90;1.93;;;9.60;99.90;;;;;;5009979;28;20860;-53
2023/06/05 02:30:47;;;;;;;2.80;2.10;;;9.50;99.90;;;;;;5007480;28;20534;-51
2023/06/05 02:33:14;;;;;;;2.17;1.83;;;9.50;99.90;;;;;;5008123;28;20559;-51
2023/06/05 02:35:41;;;;;;;1.97;1.60;;;9.50;99.90;;;;;;5001501;28;20980;-51
2023/06/05 02:38:09;;;;;;;7.90;1.80;;;9.50;99.90;;;;;;5010546;28;20456;-53
2023/06/05 02:40:36;;;;;;;4.30;1.93;;;9.40;99.90;;;;;;5003972;28;20481;-52
2023/06/05 02:43:05;;;;;;;1.93;1.83;;;9.30;99.90;;;;;;5006853;28;21294;-52
2023/06/05 02:45:32;;;;;;;2.50;2.40;;;9.30;99.90;;;;;;5009439;28;21069;-53
2023/06/05 02:48:00;;;;;;;2.03;1.93;;;9.20;99.90;;;;;;5010278;28;20562;-52
2023/06/05 02:50:27;;;;;;;7.43;2.20;;;9.30;99.90;;;;;;5004696;28;20582;-52
2023/06/05 02:52:53;;;;;;;1.87;1.77;;;9.30;99.90;;;;;;5010459;28;20547;-52
2023/06/05 02:55:21;;;;;;;2.17;1.60;;;9.30;99.90;;;;;;5011345;28;20567;-53
2023/06/05 02:57:48;;;;;;;1.90;1.80;;;9.30;99.90;;;;;;5006546;28;20495;-51
2023/06/05 03:00:16;;;;;;;2.43;1.80;;;9.20;99.90;;;;;;5006186;28;20606;-52
2023/06/05 03:02:47;;;;;;;2.10;2.00;;;9.20;99.90;;;;;;5011099;28;20594;-52
2023/06/05 03:05:17;;;;;;;1.73;1.63;;;9.20;99.90;;;;;;5006861;28;20543;-52
2023/06/05 03:07:43;;;;;;;2.60;2.20;;;9.20;99.90;;;;;;5013866;28;20522;-51
2023/06/05 03:10:10;;;;;;;2.50;1.80;;;9.20;99.90;;;;;;5011488;28;20566;-51
2023/06/05 03:12:37;;;;;;;2.87;2.57;;;9.20;99.90;;;;;;5009290;28;20473;-52
2023/06/05 03:15:04;;;;;;;4.03;1.90;;;9.20;99.90;;;;;;5013511;28;20559;-52
2023/06/05 03:17:30;;;;;;;5.43;1.77;;;9.10;99.90;;;;;;5004115;28;21035;-51
2023/06/05 03:19:57;;;;;;;3.43;1.60;;;9.10;99.90;;;;;;5009114;28;20578;-51
2023/06/05 03:22:26;;;;;;;2.33;2.13;;;9.10;99.90;;;;;;5011852;28;20542;-53
2023/06/05 03:24:52;;;;;;;1.63;1.53;;;9.10;99.90;;;;;;5011486;28;20479;-51
2023/06/05 03:27:19;;;;;;;4.70;2.70;;;9.10;99.90;;;;;;5006818;28;20483;-52
2023/06/05 03:29:45;;;;;;;2.13;1.93;;;9.20;99.90;;;;;;5012539;28;20491;-52
2023/06/05 03:32:12;;;;;;;1.93;1.83;;;9.30;99.90;;;;;;5010143;28;20547;-52
2023/06/05 03:34:39;;;;;;;1.83;1.73;;;9.30;99.90;;;;;;5010248;28;20813;-55
2023/06/05 03:37:06;;;;;;;5.90;2.20;;;9.30;99.90;;;;;;5013735;28;20483;-55
2023/06/05 03:39:34;;;;;;;2.53;1.83;;;9.30;99.90;;;;;;5006278;28;20898;-54
2023/06/05 03:42:02;;;;;;;3.70;1.80;;;9.40;99.90;;;;;;5011934;28;20545;-55
2023/06/05 03:44:28;;;;;;;2.80;1.77;;;9.40;99.90;;;;;;5012301;28;20463;-53
2023/06/05 03:46:55;;;;;;;1.80;1.70;;;9.40;99.90;;;;;;5000065;28;20544;-55
2023/06/05 03:49:22;;;;;;;1.73;1.63;;;9.40;99.90;;;;;;5011591;28;20887;-54
2023/06/05 03:51:49;;;;;;;2.33;2.13;;;9.40;93.00;;;;;;5008493;28;20491;-54
2023/06/05 03:54:16;;;;;;;1.90;1.80;;;9.40;93.10;;;;;;5010090;28;20475;-55
2023/06/05 03:56:49;;;;;;;2.50;1.63;;;9.50;89.30;;;;;;5002988;28;20464;-56
2023/06/05 03:59:19;;;;;;;2.13;1.93;;;9.50;87.70;;;;;;5009052;28;20464;-55
2023/06/05 04:01:46;;;;;;;1.93;1.83;;;9.50;88.10;;;;;;5012605;28;20496;-55
2023/06/05 04:04:13;;;;;;;1.67;1.57;;;9.60;83.70;;;;;;5009582;28;20583;-57
2023/06/05 04:06:40;;;;;;;3.70;1.90;;;9.60;82.60;;;;;;5007636;28;20579;-54
2023/06/05 04:09:11;;;;;;;2.10;2.00;;;9.60;81.00;;;;;;5012180;28;20499;-54
2023/06/05 04:11:39;;;;;;;2.70;2.40;;;9.70;78.40;;;;;;5010399;28;20541;-55
2023/06/05 04:14:09;;;;;;;2.30;2.20;;;9.70;76.20;;;;;;5011101;28;20535;-54
2023/06/05 04:16:38;;;;;;;5.63;1.90;;;9.80;73.70;;;;;;5013795;28;20500;-55
2023/06/05 04:19:06;;;;;;;2.23;1.90;;;9.90;73.70;;;;;;5008811;28;20460;-55
2023/06/05 04:21:34;;;;;;;4.10;2.30;;;9.90;73.40;;;;;;5003583;28;20487;-55
2023/06/05 04:24:00;;;;;;;6.10;2.30;;;10.00;76.60;;;;;;5010535;28;20946;-56
2023/06/05 04:26:27;;;;;;;4.67;2.30;;;10.10;78.80;;;;;;5012337;28;20992;-56
2023/06/05 04:28:55;;;;;;;2.07;1.87;;;10.20;76.50;;;;;;5012911;28;20550;-55
2023/06/05 04:31:24;;;;;;;2.10;2.00;;;10.30;76.70;;;;;;5010270;28;20486;-54
2023/06/05 04:33:51;;;;;;;1.80;1.70;;;10.30;81.90;;;;;;5008996;28;20907;-55
2023/06/05 04:36:18;;;;;;;2.50;2.17;;;10.40;81.90;;;;;;5007670;28;20923;-55
2023/06/05 04:38:46;;;;;;;8.73;3.00;;;10.50;81.80;;;;;;5005307;28;20445;-56
2023/06/05 04:41:12;;;;;;;3.73;2.63;;;10.60;84.10;;;;;;5010970;28;20570;-55
2023/06/05 04:43:39;;;;;;;3.83;1.93;;;10.70;86.70;;;;;;5009838;28;20563;-55
2023/06/05 04:46:06;;;;;;;3.03;2.50;;;10.70;90.80;;;;;;5009673;28;20483;-55
2023/06/05 04:48:34;;;;;;;2.13;1.93;;;10.80;93.80;;;;;;5009416;28;20480;-54
2023/06/05 04:51:01;;;;;;;7.80;1.70;;;10.90;98.30;;;;;;5012386;28;20563;-55
2023/06/05 04:53:30;;;;;;;1.90;1.80;;;11.00;99.90;;;;;;5010610;28;20893;-56
2023/06/05 04:56:00;;;;;;;7.30;2.70;;;11.10;99.90;;;;;;5009915;28;21002;-56
2023/06/05 04:58:26;;;;;;;2.10;1.90;;;11.30;99.90;;;;;;5012409;28;20543;-54
2023/06/05 05:00:53;;;;;;;4.70;1.80;;;11.40;99.90;;;;;;5013066;28;20587;-53
2023/06/05 05:03:20;;;;;;;4.93;1.77;;;11.40;99.90;;;;;;5010001;28;20535;-54
2023/06/05 05:05:47;;;;;;;8.23;1.50;;;11.60;99.90;;;;;;5010969;28;20480;-53
2023/06/05 05:08:14;;;;;;;3.13;2.50;;;11.60;99.90;;;;;;5012547;28;20556;-54
2023/06/05 05:10:41;;;;;;;2.17;1.97;;;11.80;99.90;;;;;;5009287;28;20468;-56
2023/06/05 05:13:07;;;;;;;2.47;2.20;;;11.90;99.90;;;;;;5010829;28;20503;-54
2023/06/05 05:15:34;;;;;;;3.33;2.07;;;12.00;99.90;;;;;;5008237;28;20532;-55
2023/06/05 05:18:03;;;;;;;1.67;1.57;;;12.10;99.90;;;;;;5008574;28;20503;-54
2023/06/05 05:20:32;;;;;;;2.20;1.80;;;12.20;99.90;;;;;;5008394;28;20519;-53
2023/06/05 05:23:00;;;;;;;4.30;1.50;;;12.30;99.90;;;;;;5011233;28;20942;-54
2023/06/05 05:25:26;;;;;;;3.37;1.90;;;12.40;99.90;;;;;;5004361;28;20854;-57
2023/06/05 05:27:53;;;;;;;2.47;2.20;;;12.50;99.90;;;;;;5003028;28;20550;-54
2023/06/05 05:30:20;;;;;;;1.83;1.73;;;12.60;99.90;;;;;;5011020;28;20510;-56
2023/06/05 05:32:46;;;;;;;9.07;1.60;;;12.70;25.70;;;;;;5011255;28;20499;-56
2023/06/05 05:35:13;;;;;;;2.80;2.27;;;12.80;42.10;;;;;;5002870;28;20511;-55
2023/06/05 05:37:40;;;;;;;1.77;1.67;;;12.90;60.20;;;;;;5009120;28;20444;-55
2023/06/05 05:40:08;;;;;;;2.60;1.87;;;13.00;74.40;;;;;;5011101;28;20519;-55
2023/06/05 05:42:35;;;;;;;14.73;2.10;;;13.10;88.90;;;;;;5010918;28;20474;-55
2023/06/05 05:45:01;;;;;;;8.67;2.03;;;13.30;97.10;;;;;;5008525;28;20543;-54
2023/06/05 05:47:28;;;;;;;8.73;2.40;;;13.40;99.90;;;;;;5007670;28;20567;-56
2023/06/05 05:49:54;;;;;;;10.30;1.90;;;13.50;99.90;;;;;;5008123;28;20574;-56
2023/06/05 05:52:22;;;;;;;1.70;1.60;;;13.60;99.90;;;;;;5008370;28;20907;-54
2023/06/05 05:54:48;;;;;;;4.80;1.97;;;13.70;99.90;;;;;;5010993;28;20459;-55
2023/06/05 05:57:16;;;;;;;2.93;1.70;;;13.80;99.90;;;;;;5008970;28;20547;-54
2023/06/05 05:59:44;;;;;;;4.70;1.70;;;14.00;99.90;;;;;;5003328;28;20555;-54
2023/06/05 06:02:11;;;;;;;3.20;2.10;;;14.10;99.90;;;;;;5000957;28;20495;-55
2023/06/05 06:04:38;;;;;;;1.63;1.53;;;14.20;99.90;;;;;;5010997;28;20550;-56
2023/06/05 06:07:05;;;;;;;1.70;1.60;;;14.30;99.90;;;;;;5012459;28;20542;-56
2023/06/05 06:09:32;;;;;;;1.60;1.50;;;14.40;99.90;;;;;;5011510;28;20891;-56
2023/06/05 06:12:02;;;;;;;2.03;1.47;;;14.60;99.90;;;;;;5009083;28;20460;-54
2023/06/05 06:14:30;;;;;;;2.90;1.90;;;14.70;99.90;;;;;;5009374;28;20460;-54
2023/06/05 06:16:57;;;;;;;5.23;1.70;;;14.80;99.90;;;;;;5011284;28;21062;-57
2023/06/05 06:19:25;;;;;;;8.63;1.93;;;14.90;99.90;;;;;;5009760;28;20554;-55
2023/06/05 06:21:52;;;;;;;1.70;1.40;;;15.00;99.90;;;;;;5011403;28;20514;-54
2023/06/05 06:24:20;;;;;;;1.53;1.43;;;15.00;99.90;;;;;;5010700;28;20980;-54
2023/06/05 06:26:46;;;;;;;11.50;2.00;;;15.10;99.90;;;;;;5010278;28;20488;-54
2023/06/05 06:29:15;;;;;;;2.07;1.90;;;15.20;99.90;;;;;;5009188;28;20555;-55
2023/06/05 06:31:44;;;;;;;3.70;1.47;;;15.40;99.90;;;;;;5009457;28;20487;-54
2023/06/05 06:34:10;;;;;;;7.70;1.60;;;15.40;99.90;;;;;;5008548;28;20973;-55
2023/06/05 06:36:40;;;;;;;5.33;2.10;;;15.50;99.90;;;;;;5011280;28;20440;-55
2023/06/05 06:39:07;;;;;;;5.50;2.10;;;15.60;99.90;;;;;;5010944;28;20452;-55
2023/06/05 06:41:34;;;;;;;3.83;1.73;;;15.70;99.90;;;;;;5010940;28;20488;-56
2023/06/05 06:44:00;;;;;;;12.80;2.07;;;15.90;99.90;;;;;;5011909;28;20455;-55
2023/06/05 06:46:27;;;;;;;2.50;1.93;;;16.00;99.90;;;;;;5009853;28;20487;-55
2023/06/05 06:48:55;;;;;;;4.30;2.10;;;16.20;99.90;;;;;;5010903;28;20495;-55
2023/06/05 06:51:22;;;;;;;1.73;1.63;;;16.30;99.90;;;;;;5011330;28;20478;-55
2023/06/05 06:53:50;;;;;;;4.90;2.07;;;16.40;99.90;;;;;;5010937;28;20538;-55
2023/06/05 06:56:17;;;;;;;7.93;2.23;;;16.50;99.90;;;;;;5010092;28;20547;-55
2023/06/05 06:58:45;;;;;;;2.83;1.90;;;16.70;99.90;;;;;;5011606;28;20898;-56
2023/06/05 07:01:12;;;;;;;3.07;1.63;;;16.80;99.90;;;;;;5011998;28;20519;-52
2023/06/05 07:03:40;;;;;;;3.63;1.80;;;17.00;99.90;;;;;;5007695;28;20470;-53
2023/06/05 07:06:09;;;;;;;12.03;1.60;;;17.10;99.90;;;;;;5009705;28;20488;-53
2023/06/05 07:08:36;;;;;;;19.43;2.70;;;17.30;99.90;;;;;;5010689;28;20555;-52
2023/06/05 07:11:03;;;;;;;4.33;2.27;;;17.40;99.90;;;;;;5010104;28;20574;-51
2023/06/05 07:13:29;;;;;;;14.80;2.10;;;17.50;99.90;;;;;;5010322;28;20919;-51
2023/06/05 07:15:56;;;;;;;3.37;2.00;;;17.60;99.90;;;;;;5007645;28;20543;-52
2023/06/05 07:18:22;;;;;;;5.50;2.10;;;17.60;99.90;;;;;;5011731;28;20449;-53
2023/06/05 07:20:49;;;;;;;12.43;2.00;;;17.80;99.90;;;;;;5009899;28;20515;-52
2023/06/05 07:23:18;;;;;;;4.93;1.80;;;17.90;99.90;;;;;;5011096;28;20479;-52
2023/06/05 07:25:44;;;;;;;15.33;1.40;;;18.00;99.90;;;;;;5006444;28;20463;-53
2023/06/05 07:28:12;;;;;;;9.83;1.90;;;18.20;99.90;;;;;;5010563;28;20455;-52
2023/06/05 07:30:42;;;;;;;28.67;2.80;;;18.20;99.90;;;;;;5008668;28;20479;-52
2023/06/05 07:33:10;;;;;;;9.40;1.60;;;18.40;99.90;;;;;;5009826;28;20468;-51
2023/06/05 07:35:37;;;;;;;5.60;1.97;;;18.50;99.90;;;;;;5007407;28;20502;-52
2023/06/05 07:38:03;;;;;;;2.03;1.93;;;18.60;99.90;;;;;;4999541;28;20491;-51
2023/06/05 07:40:31;;;;;;;8.93;2.83;;;18.70;99.90;;;;;;5012120;28;21060;-52
2023/06/05 07:42:58;;;;;;;11.13;2.53;;;18.80;99.90;;;;;;5007477;28;20487;-52
2023/06/05 07:45:24;;;;;;;5.80;1.73;;;19.00;99.90;;;;;;5012823;28;20543;-53
2023/06/05 07:47:51;;;;;;;3.90;1.67;;;19.10;99.90;;;;;;5014342;28;20483;-53
2023/06/05 07:50:17;;;;;;;4.50;2.00;;;19.20;99.90;;;;;;5013737;28;20583;-51
2023/06/05 07:52:44;;;;;;;3.23;1.87;;;19.30;99.90;;;;;;5007726;28;20530;-52
2023/06/05 07:55:11;;;;;;;13.20;2.30;;;19.50;99.90;;;;;;5012557;28;20881;-52
2023/06/05 07:57:39;;;;;;;5.10;1.70;;;19.60;99.90;;;;;;5010257;28;20542;-51
2023/06/05 08:00:10;;;;;;;4.10;1.50;;;19.80;99.90;;;;;;5013808;28;20506;-52
2023/06/05 08:02:37;;;;;;;4.40;1.80;;;19.90;99.90;;;;;;5014483;28;20462;-52
2023/06/05 08:05:06;;;;;;;5.03;1.80;;;20.20;99.90;;;;;;5013539;28;20471;-52
2023/06/05 08:07:32;;;;;;;5.37;1.90;;;20.30;99.90;;;;;;5014788;28;20526;-52
2023/06/05 08:09:59;;;;;;;2.00;1.53;;;20.40;99.90;;;;;;5014634;28;20547;-53
2023/06/05 08:12:26;;;;;;;1.50;1.40;;;20.70;99.90;;;;;;5013535;28;20954;-53
2023/06/05 08:14:54;;;;;;;1.53;1.43;;;20.70;99.90;;;;;;5014009;28;20423;-52
2023/06/05 08:17:20;;;;;;;1.43;1.30;;;20.80;99.90;;;;;;5013652;28;20456;-52
2023/06/05 08:19:47;;;;;;;1.53;1.43;;;20.90;99.90;;;;;;5012656;28;20566;-53
2023/06/05 08:22:14;;;;;;;3.20;1.57;;;20.90;99.90;;;;;;5013469;28;20546;-52
2023/06/05 08:24:40;;;;;;;5.33;1.40;;;21.00;99.90;;;;;;5013160;28;20860;-52
2023/06/05 08:27:07;;;;;;;3.10;1.67;;;21.10;99.90;;;;;;5012095;28;21036;-51
2023/06/05 08:29:36;;;;;;;1.37;1.37;;;21.30;99.90;;;;;;5007616;28;20464;-53
2023/06/05 08:32:04;;;;;;;2.37;1.90;;;21.40;99.90;;;;;;5011232;28;20467;-52
2023/06/05 08:34:31;;;;;;;2.43;1.80;;;21.50;99.90;;;;;;5012452;28;20567;-52
2023/06/05 08:36:58;;;;;;;8.80;1.90;;;21.50;99.90;;;;;;5011136;28;20457;-52
2023/06/05 08:39:27;;;;;;;2.33;1.70;;;21.60;99.90;;;;;;5013194;28;20463;-53
2023/06/05 08:42:00;;;;;;;2.07;1.60;;;21.50;99.90;;;;;;5011237;28;20882;-52
2023/06/05 08:44:27;;;;;;;1.37;1.27;;;21.60;99.90;;;;;;5012654;28;20467;-52
2023/06/05 08:46:59;;;;;;;7.87;2.30;;;21.60;99.90;;;;;;5013947;28;20522;-52
2023/06/05 08:49:29;;;;;;;4.93;1.40;;;21.70;99.90;;;;;;5013122;28;20526;-53
2023/06/05 08:51:58;;;;;;;12.23;1.93;;;22.10;99.90;;;;;;5012550;28;20463;-53
2023/06/05 08:54:25;;;;;;;1.60;1.47;;;22.10;99.90;;;;;;5010976;28;20468;-51
2023/06/05 08:56:53;;;;;;;2.90;2.00;;;22.20;99.90;;;;;;5012469;28;20823;-52
2023/06/05 08:59:23;;;;;;;7.50;1.60;;;22.30;99.90;;;;;;5011148;28;20491;-52
2023/06/05 09:01:50;;;;;;;3.27;1.50;;;22.50;99.90;;;;;;5009065;28;20551;-52
2023/06/05 09:04:17;;;;;;;1.60;1.60;;;22.60;99.90;;;;;;5013487;28;20483;-51
2023/06/05 09:06:47;;;;;;;5.13;1.60;;;22.60;87.60;;;;;;5011422;28;20579;-51
2023/06/05 09:09:15;;;;;;;2.80;1.60;;;23.00;99.90;;;;;;5005446;28;20465;-51
2023/06/05 09:11:41;;;;;;;6.20;1.67;;;23.20;82.80;;;;;;5010548;28;20575;-51
2023/06/05 09:14:08;;;;;;;4.57;1.63;;;23.10;79.40;;;;;;5010113;28;20467;-52
2023/06/05 09:16:37;;;;;;;5.47;1.40;;;23.00;21.40;;;;;;5012304;28;21024;-51
2023/06/05 09:19:04;;;;;;;4.00;1.40;;;22.90;20.20;;;;;;5011108;28;20888;-52
2023/06/05 09:21:32;;;;;;;8.53;1.63;;;23.10;80.20;;;;;;5011961;28;20563;-52
2023/06/05 09:24:14;;;;;;;4.80;1.60;;;23.00;20.10;;;;;;5012924;28;20448;-52
2023/06/05 09:26:50;;;;;;;1.53;1.43;;;23.20;73.70;;;;;;5011761;28;20480;-51
2023/06/05 09:29:21;;;;;;;7.80;1.20;;;23.40;21.00;;;;;;5012076;28;20555;-52
2023/06/05 09:31:50;;;;;;;5.20;2.00;;;23.60;88.40;;;;;;5008581;28;20586;-51
2023/06/05 09:34:24;;;;;;;3.53;1.50;;;23.80;80.90;;;;;;5010914;28;20472;-52
2023/06/05 09:36:51;;;;;;;1.57;1.47;;;24.10;87.50;;;;;;5008617;28;20566;-52
2023/06/05 09:39:20;;;;;;;8.83;1.70;;;24.10;22.70;;;;;;5010506;28;20459;-52
2023/06/05 09:41:49;;;;;;;1.80;1.53;;;24.10;23.10;;;;;;5010723;28;20484;-52
2023/06/05 09:44:16;;;;;;;2.53;1.77;;;24.40;22.80;;;;;;5010609;28;20468;-51
2023/06/05 09:46:55;;;;;;;5.50;2.37;;;24.60;22.10;;;;;;5010413;28;20483;-53
2023/06/05 09:49:26;;;;;;;3.27;2.40;;;24.90;23.80;;;;;;5011550;28;20468;-52
2023/06/05 09:51:52;;;;;;;4.90;3.00;;;25.40;23.40;;;;;;5008615;28;20552;-52
2023/06/05 09:54:22;;;;;;;2.60;1.50;;;25.50;23.60;;;;;;5009126;28;20495;-53
2023/06/05 09:56:50;;;;;;;1.73;1.30;;;25.60;24.00;;;;;;5010495;28;20463;-52
2023/06/05 09:59:21;;;;;;;2.00;1.40;;;25.60;25.80;;;;;;5011930;28;20479;-52
2023/06/05 10:01:50;;;;;;;7.00;1.67;;;25.40;24.50;;;;;;5012440;28;20485;-52
2023/06/05 10:04:19;;;;;;;6.93;1.50;;;25.50;27.00;;;;;;5011119;28;20539;-52
2023/06/05 10:06:47;;;;;;;2.90;1.50;;;25.70;25.60;;;;;;5012498;28;20452;-52
2023/06/05 10:09:14;;;;;;;4.87;1.70;;;25.90;23.80;;;;;;5012421;28;20535;-53
2023/06/05 10:11:44;;;;;;;4.00;1.50;;;26.00;27.10;;;;;;5011415;28;20526;-52
2023/06/05 10:14:10;;;;;;;1.73;1.63;;;25.60;27.90;;;;;;5004008;28;20444;-52
2023/06/05 10:16:38;;;;;;;4.43;1.77;;;25.50;29.00;;;;;;5010792;28;20543;-52
2023/06/05 10:19:05;;;;;;;3.00;1.53;;;25.70;29.70;;;;;;5013429;28;20475;-53
2023/06/05 10:21:33;;;;;;;1.53;1.43;;;25.40;28.50;;;;;;5011609;28;20898;-52
2023/06/05 10:24:05;;;;;;;1.80;1.40;;;25.80;27.10;;;;;;5010928;28;20463;-51
2023/06/05 10:27:16;;;;;;;1.40;1.30;;;25.30;28.20;;;;;;5010510;28;20463;-52
2023/06/05 10:29:55;;;;;;;3.63;1.93;;;26.20;27.50;;;;;;5012119;28;20787;-51
2023/06/05 10:32:33;;;;;;;2.57;1.50;;;26.20;28.90;;;;;;5011057;28;20482;-53
2023/06/05 10:35:10;;;;;;;5.73;1.20;;;26.10;29.90;;;;;;5008992;28;20472;-52
2023/06/05 10:37:45;;;;;;;2.50;1.40;;;25.80;29.30;;;;;;5011260;28;20482;-52
2023/06/05 10:40:11;;;;;;;4.00;1.67;;;25.30;30.70;;;;;;4992455;28;20474;-52
2023/06/05 10:42:39;;;;;;;1.77;1.47;;;25.70;30.20;;;;;;5006222;28;20457;-52
2023/06/05 10:45:07;;;;;;;2.03;1.30;;;26.10;31.90;;;;;;5010504;28;20854;-51
2023/06/05 10:47:50;;;;;;;1.30;1.30;;;26.40;33.70;;;;;;5010737;28;20977;-51
2023/06/05 10:50:24;;;;;;;5.00;1.80;;;27.20;31.00;;;;;;5010861;28;20489;-51
2023/06/05 10:52:52;;;;;;;2.43;2.00;;;27.40;31.50;;;;;;5011292;28;20566;-52
2023/06/05 10:55:20;;;;;;;14.10;1.80;;;26.20;33.30;;;;;;5007198;28;20557;-52
2023/06/05 10:58:09;;;;;;;5.73;2.10;;;26.60;32.70;;;;;;5008036;28;20547;-52
2023/06/05 11:00:37;;;;;;;7.63;1.67;;;27.30;33.60;;;;;;5011178;28;20495;-53
2023/06/05 11:03:07;;;;;;;4.73;1.77;;;26.40;33.80;;;;;;5008885;28;20464;-54
2023/06/05 11:05:33;;;;;;;1.97;1.67;;;26.30;32.70;;;;;;5007986;28;21024;-55
2023/06/05 11:08:14;;;;;;;14.93;2.27;;;26.30;32.80;;;;;;5010252;28;20604;-53
2023/06/05 11:11:05;;;;;;;8.47;1.80;;;26.70;31.70;;;;;;5009970;28;20484;-56
2023/06/05 11:13:55;;;;;;;1.70;1.60;;;26.90;33.70;;;;;;5011594;28;20455;-54
2023/06/05 11:16:30;;;;;;;3.10;1.93;;;26.70;33.40;;;;;;5014271;28;20466;-56
2023/06/05 11:19:29;;;;;;;2.70;2.13;;;26.50;32.50;;;;;;5015020;28;20458;-54
2023/06/05 11:22:07;;;;;;;8.77;1.67;;;26.30;31.00;;;;;;5014713;28;20558;-55
2023/06/05 11:24:35;;;;;;;4.30;1.80;;;26.30;32.50;;;;;;5013390;28;20982;-54
2023/06/05 11:27:03;;;;;;;8.70;1.73;;;26.60;32.00;;;;;;5012583;28;20546;-54
2023/06/05 11:29:31;;;;;;;1.93;1.70;;;26.60;33.30;;;;;;5006441;28;20467;-58
2023/06/05 11:31:57;;;;;;;4.40;2.10;;;26.80;31.50;;;;;;5012555;28;20459;-54
2023/06/05 11:34:25;;;;;;;1.87;1.73;;;26.60;31.00;;;;;;5009766;28;20448;-55
2023/06/05 11:36:52;;;;;;;4.53;2.47;;;26.20;32.10;;;;;;5012908;28;20558;-54
2023/06/05 11:39:19;;;;;;;5.00;1.97;;;26.60;31.40;;;;;;5012808;28;20538;-54
2023/06/05 11:41:47;;;;;;;7.53;2.20;;;26.60;31.40;;;;;;5012950;28;20479;-54
2023/06/05 11:44:14;;;;;;;9.23;2.13;;;26.50;33.30;;;;;;5012893;28;20491;-54
2023/06/05 11:46:44;;;;;;;5.80;1.87;;;26.60;31.90;;;;;;5010710;28;20498;-55
2023/06/05 11:49:24;;;;;;;7.87;2.30;;;26.10;32.30;;;;;;5012842;28;20491;-55
2023/06/05 11:51:51;;;;;;;2.40;1.60;;;26.10;31.50;;;;;;5009323;28;20464;-54
2023/06/05 11:54:26;;;;;;;7.70;1.70;;;26.30;32.00;;;;;;5013649;28;21023;-55
2023/06/05 11:56:57;;;;;;;5.37;2.40;;;25.80;31.70;;;;;;5014947;28;20443;-54
2023/06/05 11:59:25;;;;;;;2.93;2.03;;;25.70;33.90;;;;;;5014272;28;20451;-56
2023/06/05 12:01:54;;;;;;;2.47;2.07;;;26.00;32.90;;;;;;5014886;28;20491;-55
2023/06/05 12:04:21;;;;;;;4.80;2.07;;;26.10;31.60;;;;;;5013578;28;20935;-55
2023/06/05 12:06:48;;;;;;;1.83;1.73;;;26.10;34.20;;;;;;5014095;28;20454;-55
2023/06/05 12:09:15;;;;;;;4.20;2.00;;;26.20;33.40;;;;;;5013351;28;20487;-55
2023/06/05 12:11:44;;;;;;;2.07;1.83;;;26.00;33.80;;;;;;5014384;28;20900;-55
2023/06/05 12:14:11;;;;;;;2.07;1.90;;;26.30;33.30;;;;;;5013372;28;20469;-55
2023/06/05 12:16:39;;;;;;;2.07;1.97;;;26.20;33.20;;;;;;5013798;28;20921;-55
2023/06/05 12:19:14;;;;;;;2.97;1.73;;;26.20;33.90;;;;;;5014519;28;20862;-55
2023/06/05 12:21:40;;;;;;;3.73;2.10;;;26.30;34.00;;;;;;5012527;28;20928;-55
2023/06/05 12:24:07;;;;;;;9.93;1.83;;;26.40;35.00;;;;;;5012419;28;20542;-55
2023/06/05 12:26:51;;;;;;;7.33;1.70;;;26.50;33.20;;;;;;5011843;28;20554;-55
2023/06/05 12:29:18;;;;;;;5.07;2.03;;;26.50;35.10;;;;;;5013103;28;20487;-56
2023/06/05 12:31:45;;;;;;;4.93;1.90;;;26.80;33.10;;;;;;5013295;28;20487;-53
2023/06/05 12:34:15;;;;;;;1.80;1.70;;;27.30;31.80;;;;;;5004687;28;20976;-54
2023/06/05 12:36:42;;;;;;;3.17;2.00;;;27.00;36.40;;;;;;5014378;28;20498;-56
2023/06/05 12:39:11;;;;;;;1.60;1.50;;;27.20;36.40;;;;;;5010337;28;20463;-54
2023/06/05 12:41:37;;;;;;;2.27;2.07;;;27.30;36.60;;;;;;5012657;28;20830;-54
2023/06/05 12:44:05;;;;;;;1.60;1.50;;;26.90;36.10;;;;;;5010006;28;20441;-56
2023/06/05 12:46:32;;;;;;;3.50;2.20;;;27.70;34.80;;;;;;5000431;28;20560;-54
2023/06/05 12:48:59;;;;;;;2.10;2.00;;;27.20;35.30;;;;;;5012923;28;20848;-56
2023/06/05 12:51:27;;;;;;;2.57;2.10;;;27.00;35.90;;;;;;5013830;28;20982;-56
2023/06/05 12:53:55;;;;;;;5.93;2.07;;;27.00;36.30;;;;;;5012521;28;20997;-56